sensor_id;sensor_type;location;lat;lon;timestamp;pressure;altitude;pressure_sealevel;temperature;humidity
47809;BME280;33573;38.790;-77.084;2024-03-07T00:01:27;100660.03;;;18.72;32.26
47809;BME280;33573;38.790;-77.084;2024-03-07T00:03:52;100664.49;;;18.80;32.11
47809;BME280;33573;38.790;-77.084;2024-03-07T00:06:17;100667.78;;;18.76;32.17
47809;BME280;33573;38.790;-77.084;2024-03-07T00:08:43;100666.35;;;19.02;32.14
47809;BME280;33573;38.790;-77.084;2024-03-07T00:11:08;100661.53;;;19.00;32.19
47809;BME280;33573;38.790;-77.084;2024-03-07T00:13:34;100661.92;;;18.98;32.14
47809;BME280;33573;38.790;-77.084;2024-03-07T00:15:59;100658.44;;;18.96;32.20
47809;BME280;33573;38.790;-77.084;2024-03-07T00:18:24;100658.59;;;19.02;32.15
47809;BME280;33573;38.790;-77.084;2024-03-07T00:20:50;100656.09;;;18.83;32.16
47809;BME280;33573;38.790;-77.084;2024-03-07T00:23:15;100655.21;;;18.82;32.12
47809;BME280;33573;38.790;-77.084;2024-03-07T00:25:41;100653.56;;;19.06;32.13
47809;BME280;33573;38.790;-77.084;2024-03-07T00:28:06;100651.42;;;18.82;32.15
47809;BME280;33573;38.790;-77.084;2024-03-07T00:30:32;100642.91;;;19.09;32.13
47809;BME280;33573;38.790;-77.084;2024-03-07T00:32:58;100635.93;;;18.89;32.00
47809;BME280;33573;38.790;-77.084;2024-03-07T00:35:23;100626.09;;;18.84;32.02
47809;BME280;33573;38.790;-77.084;2024-03-07T00:37:48;100612.59;;;19.08;32.10
47809;BME280;33573;38.790;-77.084;2024-03-07T00:40:14;100604.07;;;18.87;32.07
47809;BME280;33573;38.790;-77.084;2024-03-07T00:42:39;100594.92;;;18.83;32.09
47809;BME280;33573;38.790;-77.084;2024-03-07T00:45:09;100589.10;;;19.01;32.20
47809;BME280;33573;38.790;-77.084;2024-03-07T00:47:31;100579.77;;;19.05;32.19
47809;BME280;33573;38.790;-77.084;2024-03-07T00:49:56;100580.49;;;18.75;32.16
47809;BME280;33573;38.790;-77.084;2024-03-07T00:52:21;100579.73;;;19.03;32.14
47809;BME280;33573;38.790;-77.084;2024-03-07T00:54:46;100585.34;;;19.00;32.20
47809;BME280;33573;38.790;-77.084;2024-03-07T00:57:12;100592.13;;;19.01;32.14
47809;BME280;33573;38.790;-77.084;2024-03-07T00:59:37;100593.65;;;19.03;32.20
47809;BME280;33573;38.790;-77.084;2024-03-07T01:02:03;100598.63;;;19.04;32.13
47809;BME280;33573;38.790;-77.084;2024-03-07T01:04:29;100612.21;;;19.07;32.11
47809;BME280;33573;38.790;-77.084;2024-03-07T01:06:54;100627.17;;;18.88;31.99
47809;BME280;33573;38.790;-77.084;2024-03-07T01:09:19;100639.35;;;19.10;32.01
47809;BME280;33573;38.790;-77.084;2024-03-07T01:11:45;100640.95;;;19.09;32.01
47809;BME280;33573;38.790;-77.084;2024-03-07T01:14:11;100644.24;;;18.92;31.95
47809;BME280;33573;38.790;-77.084;2024-03-07T01:16:36;100645.22;;;18.88;31.96
47809;BME280;33573;38.790;-77.084;2024-03-07T01:19:01;100645.70;;;19.08;32.02
47809;BME280;33573;38.790;-77.084;2024-03-07T01:21:27;100645.11;;;19.22;31.80
47809;BME280;33573;38.790;-77.084;2024-03-07T01:23:52;100644.46;;;18.95;31.81
47809;BME280;33573;38.790;-77.084;2024-03-07T01:26:19;100648.46;;;18.94;31.80
47809;BME280;33573;38.790;-77.084;2024-03-07T01:28:43;100649.28;;;19.26;31.75
47809;BME280;33573;38.790;-77.084;2024-03-07T01:31:08;100644.60;;;18.97;31.84
47809;BME280;33573;38.790;-77.084;2024-03-07T01:33:35;100633.56;;;19.13;32.02
47809;BME280;33573;38.790;-77.084;2024-03-07T01:35:59;100627.91;;;18.88;32.00
47809;BME280;33573;38.790;-77.084;2024-03-07T01:38:25;100631.33;;;19.23;31.93
47809;BME280;33573;38.790;-77.084;2024-03-07T01:40:51;100633.48;;;19.29;31.84
47809;BME280;33573;38.790;-77.084;2024-03-07T01:43:16;100637.18;;;19.02;31.86
47809;BME280;33573;38.790;-77.084;2024-03-07T01:45:42;100634.83;;;19.28;31.86
47809;BME280;33573;38.790;-77.084;2024-03-07T01:48:09;100633.34;;;18.70;31.99
47809;BME280;33573;38.790;-77.084;2024-03-07T01:50:36;100628.64;;;18.87;32.05
47809;BME280;33573;38.790;-77.084;2024-03-07T01:52:57;100620.85;;;19.20;31.96
47809;BME280;33573;38.790;-77.084;2024-03-07T01:55:25;100611.61;;;19.18;32.06
47809;BME280;33573;38.790;-77.084;2024-03-07T01:57:52;100605.61;;;19.06;32.12
47809;BME280;33573;38.790;-77.084;2024-03-07T02:00:19;100604.50;;;18.97;32.00
47809;BME280;33573;38.790;-77.084;2024-03-07T02:02:40;100600.35;;;19.25;31.82
47809;BME280;33573;38.790;-77.084;2024-03-07T02:05:05;100597.82;;;19.30;31.75
47809;BME280;33573;38.790;-77.084;2024-03-07T02:07:31;100607.67;;;19.26;31.78
47809;BME280;33573;38.790;-77.084;2024-03-07T02:10:00;100621.42;;;19.02;31.80
47809;BME280;33573;38.790;-77.084;2024-03-07T02:12:22;100631.58;;;19.25;31.89
47809;BME280;33573;38.790;-77.084;2024-03-07T02:14:47;100624.96;;;18.98;31.93
47809;BME280;33573;38.790;-77.084;2024-03-07T02:17:13;100611.41;;;18.76;31.90
47809;BME280;33573;38.790;-77.084;2024-03-07T02:19:38;100596.47;;;19.02;31.90
47809;BME280;33573;38.790;-77.084;2024-03-07T02:22:04;100590.83;;;19.23;31.95
47809;BME280;33573;38.790;-77.084;2024-03-07T02:24:29;100589.50;;;18.99;31.99
47809;BME280;33573;38.790;-77.084;2024-03-07T02:26:54;100585.93;;;19.01;32.00
47809;BME280;33573;38.790;-77.084;2024-03-07T02:29:19;100591.67;;;18.95;32.07
47809;BME280;33573;38.790;-77.084;2024-03-07T02:31:45;100581.04;;;19.14;32.04
47809;BME280;33573;38.790;-77.084;2024-03-07T02:34:12;100560.24;;;18.95;32.04
47809;BME280;33573;38.790;-77.084;2024-03-07T02:36:37;100546.66;;;19.21;32.02
47809;BME280;33573;38.790;-77.084;2024-03-07T02:39:01;100556.25;;;19.14;32.03
47809;BME280;33573;38.790;-77.084;2024-03-07T02:41:27;100566.89;;;19.12;32.10
47809;BME280;33573;38.790;-77.084;2024-03-07T02:43:52;100581.02;;;18.87;32.10
47809;BME280;33573;38.790;-77.084;2024-03-07T02:46:17;100587.63;;;19.23;31.88
47809;BME280;33573;38.790;-77.084;2024-03-07T02:48:43;100580.90;;;19.29;31.69
47809;BME280;33573;38.790;-77.084;2024-03-07T02:51:07;100587.10;;;19.11;31.61
47809;BME280;33573;38.790;-77.084;2024-03-07T02:53:33;100591.33;;;19.09;31.72
47809;BME280;33573;38.790;-77.084;2024-03-07T02:56:01;100592.57;;;19.27;31.81
47809;BME280;33573;38.790;-77.084;2024-03-07T02:58:24;100598.79;;;19.27;31.84
47809;BME280;33573;38.790;-77.084;2024-03-07T03:00:49;100596.61;;;18.99;31.92
47809;BME280;33573;38.790;-77.084;2024-03-07T03:03:15;100604.28;;;19.03;31.89
47809;BME280;33573;38.790;-77.084;2024-03-07T03:05:41;100618.30;;;19.30;31.88
47809;BME280;33573;38.790;-77.084;2024-03-07T03:08:06;100628.37;;;18.93;32.04
47809;BME280;33573;38.790;-77.084;2024-03-07T03:10:32;100633.86;;;18.87;32.11
47809;BME280;33573;38.790;-77.084;2024-03-07T03:12:57;100632.84;;;18.87;32.07
47809;BME280;33573;38.790;-77.084;2024-03-07T03:15:22;100640.37;;;19.10;32.08
47809;BME280;33573;38.790;-77.084;2024-03-07T03:17:50;100653.13;;;19.19;32.05
47809;BME280;33573;38.790;-77.084;2024-03-07T03:20:14;100654.62;;;19.27;32.02
47809;BME280;33573;38.790;-77.084;2024-03-07T03:22:40;100646.67;;;19.28;32.00
47809;BME280;33573;38.790;-77.084;2024-03-07T03:25:05;100622.47;;;19.03;32.05
47809;BME280;33573;38.790;-77.084;2024-03-07T03:27:29;100604.20;;;19.07;31.99
47809;BME280;33573;38.790;-77.084;2024-03-07T03:29:55;100593.02;;;18.91;31.92
47809;BME280;33573;38.790;-77.084;2024-03-07T03:32:20;100581.78;;;19.11;31.94
47809;BME280;33573;38.790;-77.084;2024-03-07T03:34:46;100569.39;;;19.14;31.90
47809;BME280;33573;38.790;-77.084;2024-03-07T03:37:11;100582.68;;;19.14;31.88
47809;BME280;33573;38.790;-77.084;2024-03-07T03:39:37;100591.41;;;19.16;31.85
47809;BME280;33573;38.790;-77.084;2024-03-07T03:42:01;100598.86;;;19.27;31.96
47809;BME280;33573;38.790;-77.084;2024-03-07T03:44:27;100593.47;;;19.12;32.11
47809;BME280;33573;38.790;-77.084;2024-03-07T03:46:52;100598.62;;;19.17;32.06
47809;BME280;33573;38.790;-77.084;2024-03-07T03:49:18;100599.09;;;19.17;32.08
47809;BME280;33573;38.790;-77.084;2024-03-07T03:51:43;100592.08;;;19.10;32.14
47809;BME280;33573;38.790;-77.084;2024-03-07T03:54:09;100580.67;;;18.87;32.11
47809;BME280;33573;38.790;-77.084;2024-03-07T03:56:34;100573.06;;;19.17;32.04
47809;BME280;33573;38.790;-77.084;2024-03-07T03:59:00;100573.44;;;18.89;32.07
47809;BME280;33573;38.790;-77.084;2024-03-07T04:01:25;100577.17;;;19.18;32.01
47809;BME280;33573;38.790;-77.084;2024-03-07T04:03:51;100578.13;;;19.04;32.17
47809;BME280;33573;38.790;-77.084;2024-03-07T04:06:16;100579.13;;;19.04;32.13
47809;BME280;33573;38.790;-77.084;2024-03-07T04:08:41;100578.67;;;19.00;32.20
47809;BME280;33573;38.790;-77.084;2024-03-07T04:11:07;100579.02;;;18.91;31.98
47809;BME280;33573;38.790;-77.084;2024-03-07T04:13:32;100576.96;;;18.72;32.19
47809;BME280;33573;38.790;-77.084;2024-03-07T04:15:58;100580.72;;;19.00;32.15
47809;BME280;33573;38.790;-77.084;2024-03-07T04:18:23;100583.37;;;18.99;32.10
47809;BME280;33573;38.790;-77.084;2024-03-07T04:20:49;100584.26;;;18.94;32.20
47809;BME280;33573;38.790;-77.084;2024-03-07T04:23:14;100577.43;;;18.66;32.25
47809;BME280;33573;38.790;-77.084;2024-03-07T04:25:39;100570.83;;;18.91;32.22
47809;BME280;33573;38.790;-77.084;2024-03-07T04:28:05;100571.13;;;18.90;32.24
47809;BME280;33573;38.790;-77.084;2024-03-07T04:30:30;100562.94;;;18.97;32.13
47809;BME280;33573;38.790;-77.084;2024-03-07T04:32:56;100555.72;;;18.92;32.16
47809;BME280;33573;38.790;-77.084;2024-03-07T04:35:21;100559.20;;;18.94;32.07
47809;BME280;33573;38.790;-77.084;2024-03-07T04:37:47;100565.55;;;18.83;32.22
47809;BME280;33573;38.790;-77.084;2024-03-07T04:40:13;100570.59;;;18.75;32.27
47809;BME280;33573;38.790;-77.084;2024-03-07T04:42:37;100580.05;;;18.81;32.21
47809;BME280;33573;38.790;-77.084;2024-03-07T04:45:03;100589.75;;;18.73;32.25
47809;BME280;33573;38.790;-77.084;2024-03-07T04:47:28;100594.71;;;18.71;32.31
47809;BME280;33573;38.790;-77.084;2024-03-07T04:49:54;100592.44;;;18.59;32.16
47809;BME280;33573;38.790;-77.084;2024-03-07T04:52:19;100586.59;;;18.81;32.23
47809;BME280;33573;38.790;-77.084;2024-03-07T04:54:45;100584.30;;;18.83;32.18
47809;BME280;33573;38.790;-77.084;2024-03-07T04:57:10;100579.78;;;18.79;32.23
47809;BME280;33573;38.790;-77.084;2024-03-07T04:59:36;100580.99;;;18.53;32.23
47809;BME280;33573;38.790;-77.084;2024-03-07T05:02:01;100589.77;;;19.04;32.15
47809;BME280;33573;38.790;-77.084;2024-03-07T05:04:27;100599.86;;;18.81;32.12
47809;BME280;33573;38.790;-77.084;2024-03-07T05:06:52;100597.38;;;18.78;32.15
47809;BME280;33573;38.790;-77.084;2024-03-07T05:09:17;100598.43;;;18.63;32.32
47809;BME280;33573;38.790;-77.084;2024-03-07T05:11:43;100597.62;;;18.75;32.14
47809;BME280;33573;38.790;-77.084;2024-03-07T05:14:08;100597.42;;;18.57;32.33
47809;BME280;33573;38.790;-77.084;2024-03-07T05:16:34;100598.06;;;18.62;32.23
47809;BME280;33573;38.790;-77.084;2024-03-07T05:18:59;100593.07;;;18.60;32.30
47809;BME280;33573;38.790;-77.084;2024-03-07T05:21:25;100594.96;;;18.57;32.32
47809;BME280;33573;38.790;-77.084;2024-03-07T05:23:50;100592.18;;;18.62;32.27
47809;BME280;33573;38.790;-77.084;2024-03-07T05:26:16;100592.64;;;18.64;32.23
47809;BME280;33573;38.790;-77.084;2024-03-07T05:28:41;100592.26;;;18.39;32.21
47809;BME280;33573;38.790;-77.084;2024-03-07T05:31:07;100591.77;;;18.41;32.20
47809;BME280;33573;38.790;-77.084;2024-03-07T05:33:32;100593.01;;;18.87;32.19
47809;BME280;33573;38.790;-77.084;2024-03-07T05:35:57;100595.01;;;18.57;32.26
47809;BME280;33573;38.790;-77.084;2024-03-07T05:38:23;100595.42;;;18.51;32.34
47809;BME280;33573;38.790;-77.084;2024-03-07T05:40:48;100595.57;;;18.55;32.24
47809;BME280;33573;38.790;-77.084;2024-03-07T05:43:14;100599.92;;;18.47;32.35
47809;BME280;33573;38.790;-77.084;2024-03-07T05:45:39;100603.11;;;18.53;32.28
47809;BME280;33573;38.790;-77.084;2024-03-07T05:48:14;100604.16;;;18.40;32.41
47809;BME280;33573;38.790;-77.084;2024-03-07T05:50:30;100598.74;;;18.51;32.26
47809;BME280;33573;38.790;-77.084;2024-03-07T05:52:56;100591.28;;;18.59;32.20
47809;BME280;33573;38.790;-77.084;2024-03-07T05:55:21;100588.88;;;18.76;32.25
47809;BME280;33573;38.790;-77.084;2024-03-07T05:57:47;100587.14;;;18.65;32.08
47809;BME280;33573;38.790;-77.084;2024-03-07T06:00:13;100589.57;;;18.61;32.11
47809;BME280;33573;38.790;-77.084;2024-03-07T06:02:39;100596.20;;;18.63;32.09
47809;BME280;33573;38.790;-77.084;2024-03-07T06:05:03;100599.33;;;18.50;32.20
47809;BME280;33573;38.790;-77.084;2024-03-07T06:07:28;100596.72;;;18.51;32.23
47809;BME280;33573;38.790;-77.084;2024-03-07T06:09:54;100599.87;;;18.41;32.26
47809;BME280;33573;38.790;-77.084;2024-03-07T06:12:19;100594.74;;;18.47;32.22
47809;BME280;33573;38.790;-77.084;2024-03-07T06:14:45;100592.41;;;18.66;32.27
47809;BME280;33573;38.790;-77.084;2024-03-07T06:17:10;100599.09;;;18.41;32.24
47809;BME280;33573;38.790;-77.084;2024-03-07T06:19:35;100602.42;;;18.39;32.28
47809;BME280;33573;38.790;-77.084;2024-03-07T06:22:01;100602.41;;;18.40;32.30
47809;BME280;33573;38.790;-77.084;2024-03-07T06:24:26;100602.40;;;18.27;32.45
47809;BME280;33573;38.790;-77.084;2024-03-07T06:26:52;100598.42;;;18.46;32.19
47809;BME280;33573;38.790;-77.084;2024-03-07T06:29:18;100591.57;;;18.48;32.12
47809;BME280;33573;38.790;-77.084;2024-03-07T06:31:43;100585.60;;;18.79;32.04
47809;BME280;33573;38.790;-77.084;2024-03-07T06:34:09;100584.12;;;18.59;31.98
47809;BME280;33573;38.790;-77.084;2024-03-07T06:36:34;100584.83;;;18.57;32.29
47809;BME280;33573;38.790;-77.084;2024-03-07T06:38:59;100585.03;;;18.31;32.30
47809;BME280;33573;38.790;-77.084;2024-03-07T06:41:24;100586.45;;;18.36;32.21
47809;BME280;33573;38.790;-77.084;2024-03-07T06:43:50;100589.67;;;18.37;32.20
47809;BME280;33573;38.790;-77.084;2024-03-07T06:46:15;100595.47;;;18.30;32.27
47809;BME280;33573;38.790;-77.084;2024-03-07T06:48:41;100597.80;;;18.29;32.28
47809;BME280;33573;38.790;-77.084;2024-03-07T06:51:07;100602.71;;;18.24;32.33
47809;BME280;33573;38.790;-77.084;2024-03-07T06:53:32;100602.74;;;18.41;32.15
47809;BME280;33573;38.790;-77.084;2024-03-07T06:55:57;100601.80;;;18.35;32.15
47809;BME280;33573;38.790;-77.084;2024-03-07T06:58:23;100599.70;;;18.37;32.15
47809;BME280;33573;38.790;-77.084;2024-03-07T07:00:48;100598.37;;;18.46;32.09
47809;BME280;33573;38.790;-77.084;2024-03-07T07:03:13;100589.38;;;18.48;31.99
47809;BME280;33573;38.790;-77.084;2024-03-07T07:05:40;100587.50;;;18.67;32.06
47809;BME280;33573;38.790;-77.084;2024-03-07T07:08:05;100583.26;;;18.34;32.14
47809;BME280;33573;38.790;-77.084;2024-03-07T07:10:30;100579.34;;;18.39;32.08
47809;BME280;33573;38.790;-77.084;2024-03-07T07:12:55;100570.41;;;18.32;32.15
47809;BME280;33573;38.790;-77.084;2024-03-07T07:15:21;100564.41;;;18.43;32.27
47809;BME280;33573;38.790;-77.084;2024-03-07T07:17:46;100570.47;;;18.53;32.21
47809;BME280;33573;38.790;-77.084;2024-03-07T07:20:12;100568.51;;;18.46;32.26
47809;BME280;33573;38.790;-77.084;2024-03-07T07:22:37;100565.58;;;18.29;32.17
47809;BME280;33573;38.790;-77.084;2024-03-07T07:25:02;100568.26;;;18.10;32.38
47809;BME280;33573;38.790;-77.084;2024-03-07T07:27:28;100569.74;;;18.25;32.21
47809;BME280;33573;38.790;-77.084;2024-03-07T07:29:53;100574.63;;;18.42;32.27
47809;BME280;33573;38.790;-77.084;2024-03-07T07:32:19;100579.82;;;18.30;32.14
47809;BME280;33573;38.790;-77.084;2024-03-07T07:34:44;100580.93;;;18.24;32.13
47809;BME280;33573;38.790;-77.084;2024-03-07T07:37:09;100583.83;;;18.64;32.03
47809;BME280;33573;38.790;-77.084;2024-03-07T07:39:35;100587.13;;;18.34;32.02
47809;BME280;33573;38.790;-77.084;2024-03-07T07:42:00;100588.28;;;18.20;32.20
47809;BME280;33573;38.790;-77.084;2024-03-07T07:44:26;100585.07;;;18.51;32.15
47809;BME280;33573;38.790;-77.084;2024-03-07T07:46:51;100584.41;;;18.15;32.28
47809;BME280;33573;38.790;-77.084;2024-03-07T07:49:17;100586.94;;;18.18;32.20
47809;BME280;33573;38.790;-77.084;2024-03-07T07:51:42;100584.35;;;18.50;32.13
47809;BME280;33573;38.790;-77.084;2024-03-07T07:54:08;100584.13;;;18.23;32.14
47809;BME280;33573;38.790;-77.084;2024-03-07T07:56:33;100584.40;;;18.25;32.13
47809;BME280;33573;38.790;-77.084;2024-03-07T07:58:59;100577.20;;;18.33;32.02
47809;BME280;33573;38.790;-77.084;2024-03-07T08:01:24;100572.82;;;18.21;32.14
47809;BME280;33573;38.790;-77.084;2024-03-07T08:03:50;100575.97;;;18.27;32.10
47809;BME280;33573;38.790;-77.084;2024-03-07T08:06:15;100580.23;;;18.43;32.15
47809;BME280;33573;38.790;-77.084;2024-03-07T08:08:40;100581.94;;;18.36;31.93
47809;BME280;33573;38.790;-77.084;2024-03-07T08:11:06;100586.33;;;18.29;32.00
47809;BME280;33573;38.790;-77.084;2024-03-07T08:13:31;100591.38;;;18.13;32.20
47809;BME280;33573;38.790;-77.084;2024-03-07T08:15:57;100594.12;;;18.14;32.17
47809;BME280;33573;38.790;-77.084;2024-03-07T08:18:22;100597.27;;;18.35;32.20
47809;BME280;33573;38.790;-77.084;2024-03-07T08:20:48;100604.99;;;18.15;32.19
47809;BME280;33573;38.790;-77.084;2024-03-07T08:23:13;100607.65;;;18.17;32.12
47809;BME280;33573;38.790;-77.084;2024-03-07T08:25:39;100609.16;;;18.48;32.02
47809;BME280;33573;38.790;-77.084;2024-03-07T08:28:04;100616.02;;;18.09;32.19
47809;BME280;33573;38.790;-77.084;2024-03-07T08:30:29;100613.02;;;18.13;32.17
47809;BME280;33573;38.790;-77.084;2024-03-07T08:32:56;100618.90;;;18.09;32.22
47809;BME280;33573;38.790;-77.084;2024-03-07T08:35:21;100627.53;;;18.31;32.22
47809;BME280;33573;38.790;-77.084;2024-03-07T08:37:47;100627.43;;;18.17;32.09
47809;BME280;33573;38.790;-77.084;2024-03-07T08:40:12;100631.88;;;18.25;32.00
47809;BME280;33573;38.790;-77.084;2024-03-07T08:42:37;100636.20;;;18.76;31.97
47809;BME280;33573;38.790;-77.084;2024-03-07T08:45:03;100638.46;;;18.42;32.06
47809;BME280;33573;38.790;-77.084;2024-03-07T08:47:28;100637.90;;;18.60;31.81
47809;BME280;33573;38.790;-77.084;2024-03-07T08:49:53;100636.70;;;18.07;32.09
47809;BME280;33573;38.790;-77.084;2024-03-07T08:52:19;100640.31;;;18.39;32.07
47809;BME280;33573;38.790;-77.084;2024-03-07T08:54:44;100639.97;;;18.18;32.00
47809;BME280;33573;38.790;-77.084;2024-03-07T08:57:09;100643.38;;;18.02;32.18
47809;BME280;33573;38.790;-77.084;2024-03-07T08:59:35;100643.36;;;18.34;32.10
47809;BME280;33573;38.790;-77.084;2024-03-07T09:02:00;100644.34;;;18.20;32.25
47809;BME280;33573;38.790;-77.084;2024-03-07T09:04:26;100648.99;;;18.50;32.18
47809;BME280;33573;38.790;-77.084;2024-03-07T09:06:51;100652.77;;;18.12;32.09
47809;BME280;33573;38.790;-77.084;2024-03-07T09:09:17;100653.87;;;18.69;32.00
47809;BME280;33573;38.790;-77.084;2024-03-07T09:11:42;100662.04;;;18.49;31.90
47809;BME280;33573;38.790;-77.084;2024-03-07T09:14:08;100660.96;;;18.22;31.92
47809;BME280;33573;38.790;-77.084;2024-03-07T09:16:33;100662.57;;;18.48;31.91
47809;BME280;33573;38.790;-77.084;2024-03-07T09:18:59;100662.85;;;18.43;31.89
47809;BME280;33573;38.790;-77.084;2024-03-07T09:21:24;100664.99;;;18.48;31.87
47809;BME280;33573;38.790;-77.084;2024-03-07T09:23:50;100670.77;;;18.37;32.00
47809;BME280;33573;38.790;-77.084;2024-03-07T09:26:15;100669.84;;;18.18;31.95
47809;BME280;33573;38.790;-77.084;2024-03-07T09:28:40;100674.19;;;18.35;32.01
47809;BME280;33573;38.790;-77.084;2024-03-07T09:31:06;100676.35;;;18.02;32.12
47809;BME280;33573;38.790;-77.084;2024-03-07T09:33:31;100678.83;;;18.57;32.03
47809;BME280;33573;38.790;-77.084;2024-03-07T09:35:57;100685.60;;;18.14;31.98
47809;BME280;33573;38.790;-77.084;2024-03-07T09:38:22;100688.12;;;18.13;32.00
47809;BME280;33573;38.790;-77.084;2024-03-07T09:40:48;100692.05;;;18.26;32.14
47809;BME280;33573;38.790;-77.084;2024-03-07T09:43:13;100693.79;;;18.33;32.04
47809;BME280;33573;38.790;-77.084;2024-03-07T09:45:40;100691.71;;;18.34;32.00
47809;BME280;33573;38.790;-77.084;2024-03-07T09:48:05;100698.73;;;18.12;31.99
47809;BME280;33573;38.790;-77.084;2024-03-07T09:50:30;100704.28;;;18.58;32.00
47809;BME280;33573;38.790;-77.084;2024-03-07T09:52:55;100702.36;;;18.00;32.14
47809;BME280;33573;38.790;-77.084;2024-03-07T09:55:21;100708.80;;;18.10;32.03
47809;BME280;33573;38.790;-77.084;2024-03-07T09:57:47;100707.21;;;18.07;32.10
47809;BME280;33573;38.790;-77.084;2024-03-07T10:00:12;100708.66;;;18.09;32.09
47809;BME280;33573;38.790;-77.084;2024-03-07T10:02:38;100715.15;;;18.10;32.06
47809;BME280;33573;38.790;-77.084;2024-03-07T10:05:04;100722.26;;;18.11;32.06
47809;BME280;33573;38.790;-77.084;2024-03-07T10:07:28;100725.32;;;18.16;32.00
47809;BME280;33573;38.790;-77.084;2024-03-07T10:09:53;100728.23;;;18.21;31.96
47809;BME280;33573;38.790;-77.084;2024-03-07T10:12:18;100732.59;;;18.57;32.12
47809;BME280;33573;38.790;-77.084;2024-03-07T10:14:49;100734.35;;;18.17;31.97
47809;BME280;33573;38.790;-77.084;2024-03-07T10:17:11;100735.86;;;18.30;32.10
47809;BME280;33573;38.790;-77.084;2024-03-07T10:19:35;100735.62;;;18.10;32.04
47809;BME280;33573;38.790;-77.084;2024-03-07T10:22:00;100731.69;;;18.01;32.13
47809;BME280;33573;38.790;-77.084;2024-03-07T10:24:26;100735.33;;;18.20;32.24
47809;BME280;33573;38.790;-77.084;2024-03-07T10:26:51;100731.77;;;17.98;32.19
47809;BME280;33573;38.790;-77.084;2024-03-07T10:29:17;100732.07;;;18.29;32.10
47809;BME280;33573;38.790;-77.084;2024-03-07T10:31:42;100729.77;;;18.03;32.12
47809;BME280;33573;38.790;-77.084;2024-03-07T10:34:07;100721.26;;;18.28;32.09
47809;BME280;33573;38.790;-77.084;2024-03-07T10:36:33;100715.68;;;18.36;32.29
47809;BME280;33573;38.790;-77.084;2024-03-07T10:38:59;100716.12;;;18.15;32.00
47809;BME280;33573;38.790;-77.084;2024-03-07T10:41:27;100715.48;;;18.36;32.00
47809;BME280;33573;38.790;-77.084;2024-03-07T10:43:52;100719.39;;;18.20;31.92
47809;BME280;33573;38.790;-77.084;2024-03-07T10:46:16;100721.48;;;18.33;31.80
47809;BME280;33573;38.790;-77.084;2024-03-07T10:48:43;100723.39;;;18.42;31.76
47809;BME280;33573;38.790;-77.084;2024-03-07T10:51:10;100727.35;;;18.45;31.78
47809;BME280;33573;38.790;-77.084;2024-03-07T10:53:35;100735.17;;;18.49;31.78
47809;BME280;33573;38.790;-77.084;2024-03-07T10:56:09;100741.71;;;18.56;31.58
47809;BME280;33573;38.790;-77.084;2024-03-07T10:58:27;100738.78;;;18.64;31.62
47809;BME280;33573;38.790;-77.084;2024-03-07T11:00:48;100741.16;;;19.15;31.63
47809;BME280;33573;38.790;-77.084;2024-03-07T11:03:14;100742.17;;;18.52;31.89
47809;BME280;33573;38.790;-77.084;2024-03-07T11:05:38;100743.22;;;18.76;31.81
47809;BME280;33573;38.790;-77.084;2024-03-07T11:08:04;100742.58;;;18.54;31.68
47809;BME280;33573;38.790;-77.084;2024-03-07T11:10:31;100737.45;;;18.56;31.74
47809;BME280;33573;38.790;-77.084;2024-03-07T11:12:55;100735.93;;;18.58;31.61
47809;BME280;33573;38.790;-77.084;2024-03-07T11:15:21;100741.79;;;18.57;31.67
47809;BME280;33573;38.790;-77.084;2024-03-07T11:17:47;100754.72;;;18.72;31.61
47809;BME280;33573;38.790;-77.084;2024-03-07T11:20:20;100760.39;;;18.67;31.86
47809;BME280;33573;38.790;-77.084;2024-03-07T11:22:36;100766.17;;;18.49;31.73
47809;BME280;33573;38.790;-77.084;2024-03-07T11:25:02;100768.86;;;18.66;31.85
47809;BME280;33573;38.790;-77.084;2024-03-07T11:27:27;100767.19;;;18.65;31.87
47809;BME280;33573;38.790;-77.084;2024-03-07T11:29:53;100772.09;;;18.50;32.16
47809;BME280;33573;38.790;-77.084;2024-03-07T11:32:19;100770.18;;;18.54;32.06
47809;BME280;33573;38.790;-77.084;2024-03-07T11:34:45;100773.68;;;18.09;31.94
47809;BME280;33573;38.790;-77.084;2024-03-07T11:37:09;100776.79;;;18.60;31.82
47809;BME280;33573;38.790;-77.084;2024-03-07T11:39:41;100777.99;;;18.41;33.01
47809;BME280;33573;38.790;-77.084;2024-03-07T11:42:00;100789.07;;;18.54;32.81
47809;BME280;33573;38.790;-77.084;2024-03-07T11:44:25;100792.97;;;18.59;32.57
47809;BME280;33573;38.790;-77.084;2024-03-07T11:46:51;100800.47;;;18.57;32.62
47809;BME280;33573;38.790;-77.084;2024-03-07T11:49:17;100804.54;;;18.57;32.51
47809;BME280;33573;38.790;-77.084;2024-03-07T11:51:41;100808.88;;;18.61;32.68
47809;BME280;33573;38.790;-77.084;2024-03-07T11:54:07;100819.30;;;18.57;32.61
47809;BME280;33573;38.790;-77.084;2024-03-07T11:56:32;100827.27;;;18.54;32.41
47809;BME280;33573;38.790;-77.084;2024-03-07T11:58:58;100834.85;;;18.62;32.20
47809;BME280;33573;38.790;-77.084;2024-03-07T12:01:23;100849.07;;;18.70;32.45
47809;BME280;33573;38.790;-77.084;2024-03-07T12:03:49;100852.11;;;18.69;32.19
47809;BME280;33573;38.790;-77.084;2024-03-07T12:06:15;100854.71;;;18.65;32.91
47809;BME280;33573;38.790;-77.084;2024-03-07T12:08:40;100856.82;;;18.94;32.80
47809;BME280;33573;38.790;-77.084;2024-03-07T12:11:05;100864.71;;;18.72;32.86
47809;BME280;33573;38.790;-77.084;2024-03-07T12:13:31;100873.37;;;18.84;32.81
47809;BME280;33573;38.790;-77.084;2024-03-07T12:15:56;100881.14;;;18.46;33.22
47809;BME280;33573;38.790;-77.084;2024-03-07T12:18:22;100884.48;;;18.54;33.08
47809;BME280;33573;38.790;-77.084;2024-03-07T12:20:48;100889.50;;;18.61;32.83